OCN3HT EDDF-GCLP
Flight info
| Callsign | OCN3HT |
|---|---|
| Flight time | N/A |
| Altitude | 35000 |
| Route | ANEKI2L ANEKI Y163 HERBI Y164 MOPAN DCT LUTIX DCT BENOT DCT NEMOS DCT NINTU DCT MEBAK DCT REPSI DCT LERGA DCT MINSO DCT NARAK DCT AGN/N0413F270 DCT LATEK DCT PPN/N0445F350 N976 NEA L14 ADINO DCT ELVAR DCT BAROK/N0443F370 UN873 SAMAR |
| Aircraft | A320/M-SDE3FGHIRWY/LB1 |
Departure
| Time | N/A |
|---|---|
| Airport | Frankfurt Main Airport (EDDF) |
Arrival
| Time | 2026-04-27 17:27 |
|---|---|
| Airport | Gran Canaria Airport (GCLP) |
| Time | Latitude | Longitude | Altitude | Speed | Heading |
|---|---|---|---|---|---|
| 2026-04-27 16:29 | 32.23967 | -13.31454 | 37015 ft | 429 kts | 216° |
| 2026-04-27 16:30 | 32.14238 | -13.39567 | 37015 ft | 428 kts | 216° |
| 2026-04-27 16:31 | 32.02071 | -13.49673 | 37021 ft | 428 kts | 216° |
| 2026-04-27 16:32 | 31.94755 | -13.55731 | 37029 ft | 428 kts | 216° |
| 2026-04-27 16:33 | 31.87445 | -13.61781 | 37022 ft | 428 kts | 216° |
| 2026-04-27 16:33 | 31.82570 | -13.65817 | 37023 ft | 428 kts | 216° |
| 2026-04-27 16:34 | 31.77722 | -13.69814 | 37032 ft | 428 kts | 216° |
| 2026-04-27 16:34 | 31.72838 | -13.73827 | 37030 ft | 428 kts | 216° |
| 2026-04-27 16:35 | 31.67959 | -13.77839 | 37029 ft | 428 kts | 216° |
| 2026-04-27 16:36 | 31.60650 | -13.83858 | 37027 ft | 428 kts | 216° |
| 2026-04-27 16:36 | 31.55773 | -13.87855 | 37031 ft | 428 kts | 216° |
| 2026-04-27 16:37 | 31.50895 | -13.91848 | 37031 ft | 428 kts | 216° |
| 2026-04-27 16:37 | 31.46018 | -13.95835 | 37029 ft | 428 kts | 216° |
| 2026-04-27 16:38 | 31.41134 | -13.99823 | 37032 ft | 428 kts | 216° |
| 2026-04-27 16:38 | 31.36254 | -14.03806 | 37036 ft | 427 kts | 216° |
| 2026-04-27 16:39 | 31.32198 | -14.07112 | 37035 ft | 427 kts | 216° |
| 2026-04-27 16:39 | 31.27326 | -14.11091 | 37037 ft | 427 kts | 216° |
| 2026-04-27 16:40 | 31.22460 | -14.15077 | 37039 ft | 426 kts | 216° |
| 2026-04-27 16:40 | 31.17599 | -14.19046 | 37043 ft | 426 kts | 216° |
| 2026-04-27 16:41 | 31.12735 | -14.23018 | 37043 ft | 426 kts | 216° |
| 2026-04-27 16:41 | 31.07906 | -14.26965 | 37046 ft | 426 kts | 216° |
| 2026-04-27 16:42 | 31.03043 | -14.30927 | 37046 ft | 426 kts | 216° |
| 2026-04-27 16:42 | 30.98179 | -14.34890 | 37045 ft | 426 kts | 216° |
| 2026-04-27 16:43 | 30.93312 | -14.38853 | 37044 ft | 427 kts | 216° |
| 2026-04-27 16:43 | 30.88136 | -14.42233 | 37049 ft | 429 kts | 201° |
| 2026-04-27 16:44 | 30.82433 | -14.44348 | 37042 ft | 430 kts | 199° |
| 2026-04-27 16:44 | 30.76728 | -14.46444 | 37039 ft | 430 kts | 200° |
| 2026-04-27 16:45 | 30.71028 | -14.48550 | 37036 ft | 430 kts | 200° |
| 2026-04-27 16:45 | 30.65319 | -14.50654 | 37034 ft | 430 kts | 200° |
| 2026-04-27 16:46 | 30.59606 | -14.52751 | 37036 ft | 431 kts | 200° |
| 2026-04-27 16:46 | 30.53880 | -14.54857 | 37043 ft | 431 kts | 200° |
| 2026-04-27 16:47 | 30.48166 | -14.56955 | 37050 ft | 431 kts | 200° |
| 2026-04-27 16:47 | 30.42450 | -14.59047 | 37057 ft | 431 kts | 200° |
| 2026-04-27 16:48 | 30.36734 | -14.61132 | 37054 ft | 430 kts | 200° |
| 2026-04-27 16:48 | 30.31023 | -14.63223 | 37049 ft | 430 kts | 200° |
| 2026-04-27 16:49 | 30.22455 | -14.66351 | 37054 ft | 430 kts | 200° |
| 2026-04-27 16:49 | 30.16779 | -14.68422 | 37048 ft | 430 kts | 199° |
| 2026-04-27 16:50 | 30.11068 | -14.70492 | 37049 ft | 430 kts | 199° |
| 2026-04-27 16:50 | 30.05362 | -14.72570 | 37051 ft | 430 kts | 200° |
| 2026-04-27 16:51 | 29.99658 | -14.74643 | 37044 ft | 430 kts | 199° |
| 2026-04-27 16:51 | 29.93958 | -14.76702 | 37041 ft | 429 kts | 199° |
| 2026-04-27 16:52 | 29.88251 | -14.78761 | 37052 ft | 429 kts | 199° |
| 2026-04-27 16:52 | 29.82556 | -14.80824 | 37048 ft | 429 kts | 199° |
| 2026-04-27 16:53 | 29.76866 | -14.82879 | 37045 ft | 428 kts | 199° |
| 2026-04-27 16:53 | 29.71184 | -14.84928 | 37048 ft | 428 kts | 199° |
| 2026-04-27 16:54 | 29.65502 | -14.86975 | 37046 ft | 428 kts | 199° |
| 2026-04-27 16:54 | 29.59827 | -14.89021 | 37044 ft | 427 kts | 199° |
| 2026-04-27 16:55 | 29.54152 | -14.91065 | 37047 ft | 427 kts | 199° |
| 2026-04-27 16:55 | 29.48487 | -14.93099 | 37036 ft | 427 kts | 199° |
| 2026-04-27 16:56 | 29.42814 | -14.95130 | 37034 ft | 427 kts | 199° |
| 2026-04-27 16:56 | 29.37138 | -14.97165 | 37033 ft | 427 kts | 199° |
| 2026-04-27 16:57 | 29.31455 | -14.99198 | 36796 ft | 428 kts | 199° |
| 2026-04-27 16:57 | 29.28578 | -15.00227 | 35700 ft | 439 kts | 199° |
| 2026-04-27 16:57 | 29.25639 | -15.01277 | 34701 ft | 446 kts | 199° |
| 2026-04-27 16:58 | 29.22669 | -15.02335 | 33993 ft | 447 kts | 199° |
| 2026-04-27 16:58 | 29.19702 | -15.03393 | 33210 ft | 446 kts | 198° |
| 2026-04-27 16:58 | 29.16749 | -15.04446 | 32538 ft | 443 kts | 198° |
| 2026-04-27 16:58 | 29.13818 | -15.05492 | 31929 ft | 439 kts | 198° |
| 2026-04-27 16:59 | 29.10910 | -15.06529 | 31330 ft | 435 kts | 198° |
| 2026-04-27 16:59 | 29.08032 | -15.07551 | 30745 ft | 431 kts | 198° |
| 2026-04-27 16:59 | 29.05180 | -15.08564 | 30169 ft | 427 kts | 198° |
| 2026-04-27 16:59 | 29.02354 | -15.09572 | 29531 ft | 424 kts | 198° |
| 2026-04-27 17:00 | 28.97710 | -15.11223 | 28510 ft | 417 kts | 198° |
| 2026-04-27 17:00 | 28.94023 | -15.12533 | 27705 ft | 412 kts | 197° |
| 2026-04-27 17:00 | 28.91295 | -15.13502 | 27120 ft | 409 kts | 197° |
| 2026-04-27 17:01 | 28.88589 | -15.14463 | 26538 ft | 406 kts | 197° |
| 2026-04-27 17:01 | 28.85905 | -15.15416 | 25971 ft | 403 kts | 197° |
| 2026-04-27 17:01 | 28.83239 | -15.16363 | 25399 ft | 400 kts | 197° |
| 2026-04-27 17:01 | 28.80588 | -15.17302 | 24851 ft | 397 kts | 197° |
| 2026-04-27 17:02 | 28.77958 | -15.18230 | 24302 ft | 394 kts | 197° |
| 2026-04-27 17:02 | 28.75343 | -15.19153 | 23748 ft | 392 kts | 197° |
| 2026-04-27 17:02 | 28.72744 | -15.20071 | 23156 ft | 390 kts | 197° |
| 2026-04-27 17:02 | 28.70165 | -15.20983 | 22578 ft | 387 kts | 197° |
| 2026-04-27 17:03 | 28.67599 | -15.21888 | 22032 ft | 384 kts | 197° |
| 2026-04-27 17:03 | 28.65048 | -15.22788 | 21484 ft | 382 kts | 197° |
| 2026-04-27 17:03 | 28.62518 | -15.23683 | 20959 ft | 379 kts | 197° |
| 2026-04-27 17:03 | 28.60038 | -15.24559 | 20456 ft | 377 kts | 197° |
| 2026-04-27 17:04 | 28.57509 | -15.25450 | 19955 ft | 375 kts | 197° |
| 2026-04-27 17:04 | 28.55023 | -15.26323 | 19465 ft | 373 kts | 197° |
| 2026-04-27 17:04 | 28.52580 | -15.27180 | 18991 ft | 371 kts | 197° |
| 2026-04-27 17:04 | 28.50118 | -15.28043 | 18537 ft | 369 kts | 197° |
| 2026-04-27 17:05 | 28.47638 | -15.28913 | 18044 ft | 367 kts | 197° |
| 2026-04-27 17:05 | 28.45204 | -15.29769 | 17546 ft | 365 kts | 197° |
| 2026-04-27 17:05 | 28.42817 | -15.30607 | 17062 ft | 363 kts | 197° |
| 2026-04-27 17:05 | 28.41189 | -15.31178 | 16758 ft | 361 kts | 197° |
| 2026-04-27 17:06 | 28.38020 | -15.32290 | 16170 ft | 358 kts | 198° |
| 2026-04-27 17:06 | 28.35647 | -15.33123 | 15720 ft | 356 kts | 198° |
| 2026-04-27 17:06 | 28.33286 | -15.33953 | 15273 ft | 354 kts | 198° |
| 2026-04-27 17:06 | 28.30940 | -15.34775 | 14832 ft | 352 kts | 198° |
| 2026-04-27 17:07 | 28.28601 | -15.35594 | 14390 ft | 350 kts | 198° |
| 2026-04-27 17:07 | 28.26277 | -15.36410 | 13965 ft | 349 kts | 198° |
| 2026-04-27 17:07 | 28.23964 | -15.37219 | 13510 ft | 347 kts | 198° |
| 2026-04-27 17:07 | 28.21663 | -15.38026 | 13068 ft | 344 kts | 198° |
| 2026-04-27 17:08 | 28.19397 | -15.38820 | 12796 ft | 336 kts | 198° |
| 2026-04-27 17:08 | 28.17188 | -15.39592 | 12570 ft | 328 kts | 198° |
| 2026-04-27 17:08 | 28.15031 | -15.40344 | 12356 ft | 322 kts | 198° |
| 2026-04-27 17:08 | 28.12899 | -15.41087 | 12141 ft | 320 kts | 198° |
| 2026-04-27 17:09 | 28.10751 | -15.41699 | 11930 ft | 319 kts | 187° |
| 2026-04-27 17:09 | 28.08540 | -15.41651 | 11722 ft | 319 kts | 170° |
| 2026-04-27 17:09 | 28.06439 | -15.40874 | 11506 ft | 319 kts | 153° |
| 2026-04-27 17:09 | 28.04629 | -15.39438 | 11263 ft | 318 kts | 136° |
| 2026-04-27 17:10 | 28.03061 | -15.37671 | 11055 ft | 318 kts | 135° |
| 2026-04-27 17:10 | 28.01498 | -15.35905 | 10834 ft | 317 kts | 135° |
| 2026-04-27 17:10 | 27.99936 | -15.34146 | 10624 ft | 316 kts | 135° |
| 2026-04-27 17:10 | 27.98380 | -15.32396 | 10411 ft | 315 kts | 135° |
| 2026-04-27 17:11 | 27.96825 | -15.30652 | 10198 ft | 313 kts | 135° |
| 2026-04-27 17:11 | 27.93823 | -15.27286 | 9817 ft | 297 kts | 135° |
| 2026-04-27 17:11 | 27.92360 | -15.25645 | 9680 ft | 296 kts | 135° |
| 2026-04-27 17:12 | 27.89448 | -15.22384 | 9285 ft | 294 kts | 135° |
| 2026-04-27 17:12 | 27.87997 | -15.20760 | 9044 ft | 292 kts | 135° |
| 2026-04-27 17:12 | 27.86554 | -15.19142 | 8845 ft | 292 kts | 135° |
| 2026-04-27 17:13 | 27.85116 | -15.17529 | 8654 ft | 291 kts | 135° |
| 2026-04-27 17:13 | 27.83680 | -15.15917 | 8455 ft | 290 kts | 135° |
| 2026-04-27 17:13 | 27.82250 | -15.14313 | 8249 ft | 289 kts | 135° |
| 2026-04-27 17:13 | 27.80824 | -15.12716 | 8037 ft | 288 kts | 135° |
| 2026-04-27 17:14 | 27.79402 | -15.11123 | 7807 ft | 287 kts | 135° |
| 2026-04-27 17:14 | 27.78001 | -15.09553 | 7611 ft | 287 kts | 135° |
| 2026-04-27 17:14 | 27.76586 | -15.07969 | 7395 ft | 286 kts | 135° |
| 2026-04-27 17:14 | 27.75175 | -15.06391 | 7189 ft | 285 kts | 135° |
| 2026-04-27 17:15 | 27.73777 | -15.04829 | 7019 ft | 279 kts | 135° |
| 2026-04-27 17:15 | 27.72242 | -15.03595 | 6894 ft | 267 kts | 159° |
| 2026-04-27 17:15 | 27.70464 | -15.03307 | 6741 ft | 256 kts | 187° |
| 2026-04-27 17:15 | 27.68835 | -15.03961 | 6597 ft | 248 kts | 216° |
| 2026-04-27 17:16 | 27.67661 | -15.05353 | 6431 ft | 245 kts | 242° |
| 2026-04-27 17:16 | 27.66899 | -15.07075 | 6236 ft | 246 kts | 245° |
| 2026-04-27 17:16 | 27.66149 | -15.08803 | 6048 ft | 245 kts | 246° |
| 2026-04-27 17:16 | 27.65395 | -15.10530 | 5865 ft | 245 kts | 246° |
| 2026-04-27 17:17 | 27.64643 | -15.12248 | 5681 ft | 244 kts | 246° |
| 2026-04-27 17:17 | 27.64025 | -15.14015 | 5498 ft | 241 kts | 261° |
| 2026-04-27 17:17 | 27.63938 | -15.15868 | 5329 ft | 235 kts | 281° |
| 2026-04-27 17:18 | 27.64962 | -15.19296 | 5022 ft | 230 kts | 295° |
| 2026-04-27 17:18 | 27.65549 | -15.20968 | 4870 ft | 229 kts | 294° |
| 2026-04-27 17:18 | 27.66131 | -15.22636 | 4707 ft | 228 kts | 294° |
| 2026-04-27 17:18 | 27.66515 | -15.23738 | 4610 ft | 227 kts | 294° |
| 2026-04-27 17:19 | 27.67284 | -15.25935 | 4408 ft | 227 kts | 295° |
| 2026-04-27 17:19 | 27.67792 | -15.27381 | 4277 ft | 227 kts | 295° |
| 2026-04-27 17:19 | 27.68371 | -15.29035 | 4128 ft | 227 kts | 294° |
| 2026-04-27 17:19 | 27.68946 | -15.30686 | 3978 ft | 225 kts | 294° |
| 2026-04-27 17:20 | 27.69521 | -15.32334 | 3833 ft | 226 kts | 294° |
| 2026-04-27 17:20 | 27.69911 | -15.33451 | 3741 ft | 227 kts | 294° |
| 2026-04-27 17:20 | 27.70665 | -15.35609 | 3537 ft | 219 kts | 295° |
| 2026-04-27 17:20 | 27.71218 | -15.37194 | 3395 ft | 216 kts | 295° |
| 2026-04-27 17:21 | 27.71770 | -15.38774 | 3252 ft | 217 kts | 295° |
| 2026-04-27 17:21 | 27.72323 | -15.40357 | 3106 ft | 217 kts | 294° |
| 2026-04-27 17:21 | 27.72918 | -15.41914 | 2953 ft | 215 kts | 304° |
| 2026-04-27 17:21 | 27.73506 | -15.42787 | 2865 ft | 208 kts | 317° |
| 2026-04-27 17:22 | 27.74651 | -15.43711 | 2740 ft | 199 kts | 336° |
| 2026-04-27 17:22 | 27.75882 | -15.44346 | 2641 ft | 191 kts | 336° |
| 2026-04-27 17:22 | 27.77083 | -15.44949 | 2555 ft | 187 kts | 344° |
| 2026-04-27 17:22 | 27.78350 | -15.45093 | 2492 ft | 184 kts | 7° |
| 2026-04-27 17:23 | 27.79577 | -15.44671 | 2362 ft | 184 kts | 20° |
| 2026-04-27 17:23 | 27.80730 | -15.44157 | 2250 ft | 173 kts | 19° |
| 2026-04-27 17:23 | 27.81812 | -15.43680 | 2143 ft | 163 kts | 20° |
| 2026-04-27 17:23 | 27.82847 | -15.43224 | 1974 ft | 157 kts | 20° |
| 2026-04-27 17:24 | 27.83860 | -15.42778 | 1788 ft | 156 kts | 19° |
| 2026-04-27 17:24 | 27.84868 | -15.42333 | 1587 ft | 153 kts | 19° |
| 2026-04-27 17:24 | 27.85823 | -15.41911 | 1380 ft | 143 kts | 19° |
| 2026-04-27 17:24 | 27.86633 | -15.41554 | 1226 ft | 135 kts | 19° |
| 2026-04-27 17:25 | 27.87499 | -15.41172 | 1034 ft | 133 kts | 17° |
| 2026-04-27 17:25 | 27.88350 | -15.40795 | 882 ft | 129 kts | 20° |
| 2026-04-27 17:25 | 27.89177 | -15.40420 | 729 ft | 127 kts | 19° |
| 2026-04-27 17:25 | 27.89991 | -15.40063 | 533 ft | 124 kts | 20° |
| 2026-04-27 17:26 | 27.90794 | -15.39711 | 367 ft | 124 kts | 20° |
| 2026-04-27 17:26 | 27.91594 | -15.39361 | 212 ft | 122 kts | 19° |
| 2026-04-27 17:26 | 27.92365 | -15.39022 | 88 ft | 110 kts | 19° |
| 2026-04-27 17:26 | 27.92998 | -15.38744 | 65 ft | 73 kts | 21° |
| 2026-04-27 17:27 | 27.93342 | -15.38592 | 60 ft | 45 kts | 21° |
| 2026-04-27 17:27 | 27.93600 | -15.38480 | 53 ft | 35 kts | 21° |
| 2026-04-27 17:27 | 27.93790 | -15.38426 | 52 ft | 26 kts | 6° |
| 2026-04-27 17:27 | 27.93942 | -15.38436 | 51 ft | 17 kts | 349° |
| 2026-04-27 17:28 | 27.93989 | -15.38446 | 50 ft | 6 kts | 349° |
| 2026-04-27 17:28 | 27.94043 | -15.38482 | 47 ft | 2 kts | 308° |
| 2026-04-27 17:28 | 27.94047 | -15.38488 | 49 ft | 0 kts | 303° |
| 2026-04-27 17:29 | 27.94054 | -15.38506 | 48 ft | 5 kts | 293° |
| 2026-04-27 17:29 | 27.94073 | -15.38557 | 48 ft | 9 kts | 293° |
| 2026-04-27 17:29 | 27.94099 | -15.38631 | 45 ft | 10 kts | 290° |
| 2026-04-27 17:29 | 27.94116 | -15.38681 | 45 ft | 2 kts | 290° |
| 2026-04-27 17:30 | 27.94117 | -15.38685 | 46 ft | 0 kts | 290° |